Time;durP1;ratioP1;P1;durP2;ratioP2;P2;SDS_P1;SDS_P2;PMS_P1;PMS_P2;Temp;Humidity;BMP_temperature;BMP_pressure;BME280_temperature;BME280_humidity;BME280_pressure;Samples;Min_cycle;Max_cycle;Signal;HPM_P1;HPM_P2
2021/08/17 00:00:13;;;;;;;6.07;4.40;;;;;;;;;;2094422;28;20524;-86
2021/08/17 00:01:32;;;;;;;10.27;5.20;;;;;;;;;;2088411;28;20033;-86
2021/08/17 00:02:51;;;;;;;6.72;4.80;;;;;;;;;;2088241;28;20059;-88
2021/08/17 00:04:10;;;;;;;9.48;4.70;;;;;;;;;;2085904;28;20029;-88
2021/08/17 00:05:29;;;;;;;9.38;5.28;;;;;;;;;;2086783;28;20080;-87
2021/08/17 00:06:49;;;;;;;8.18;4.97;;;;;;;;;;2087632;28;20029;-88
2021/08/17 00:08:07;;;;;;;9.88;5.57;;;;;;;;;;2087154;28;20328;-88
2021/08/17 00:09:26;;;;;;;11.07;4.90;;;;;;;;;;2095980;28;20012;-87
2021/08/17 00:10:45;;;;;;;13.05;6.30;;;;;;;;;;2091398;28;20465;-87
2021/08/17 00:12:04;;;;;;;7.78;5.25;;;;;;;;;;2088040;28;20108;-87
2021/08/17 00:13:23;;;;;;;7.25;5.00;;;;;;;;;;2088717;28;20092;-86
2021/08/17 00:14:42;;;;;;;8.07;4.85;;;;;;;;;;2088451;28;20033;-87
2021/08/17 00:16:01;;;;;;;12.05;5.28;;;;;;;;;;2092194;28;20057;-86
2021/08/17 00:17:20;;;;;;;10.98;5.82;;;;;;;;;;2095354;28;20028;-88
2021/08/17 00:18:39;;;;;;;6.63;5.00;;;;;;;;;;2095245;28;20044;-87
2021/08/17 00:19:58;;;;;;;10.02;4.88;;;;;;;;;;2088852;28;20075;-86
2021/08/17 00:21:16;;;;;;;6.45;4.82;;;;;;;;;;2086147;28;20033;-86
2021/08/17 00:22:36;;;;;;;23.27;6.05;;;;;;;;;;2082115;28;20029;-86
2021/08/17 00:23:58;;;;;;;9.38;5.70;;;;;;;;;;2088372;28;20433;-87
2021/08/17 00:25:17;;;;;;;11.90;5.50;;;;;;;;;;2092362;28;20499;-87
2021/08/17 00:26:36;;;;;;;12.65;5.70;;;;;;;;;;2092221;28;20029;-85
2021/08/17 00:27:55;;;;;;;10.48;5.60;;;;;;;;;;2088634;28;20083;-86
2021/08/17 00:29:14;;;;;;;7.35;5.43;;;;;;;;;;2088416;28;20443;-86
2021/08/17 00:30:33;;;;;;;9.30;5.20;;;;;;;;;;2087340;28;20021;-84
2021/08/17 00:31:51;;;;;;;15.60;6.40;;;;;;;;;;2086631;28;20029;-82
2021/08/17 00:33:10;;;;;;;8.73;5.68;;;;;;;;;;2089158;28;20029;-85
2021/08/17 00:34:29;;;;;;;10.35;5.13;;;;;;;;;;2090671;28;20028;-84
2021/08/17 00:35:48;;;;;;;12.32;5.68;;;;;;;;;;2091474;28;20032;-84
2021/08/17 00:37:07;;;;;;;13.18;6.43;;;;;;;;;;2087345;28;20409;-84
2021/08/17 00:38:26;;;;;;;16.05;5.78;;;;;;;;;;2091275;28;20030;-85
2021/08/17 00:39:45;;;;;;;11.13;6.82;;;;;;;;;;2090797;28;20029;-84
2021/08/17 00:41:06;;;;;;;13.65;6.40;;;;;;;;;;2085731;28;20033;-84
2021/08/17 00:42:25;;;;;;;15.10;6.57;;;;;;;;;;2085854;28;20504;-85
2021/08/17 00:43:44;;;;;;;12.80;6.13;;;;;;;;;;2086978;28;20029;-85
2021/08/17 00:45:03;;;;;;;13.98;6.65;;;;;;;;;;2090645;28;20025;-86
2021/08/17 00:46:23;;;;;;;14.23;6.28;;;;;;;;;;2090890;28;20021;-84
2021/08/17 00:47:42;;;;;;;15.15;6.45;;;;;;;;;;2088453;28;20093;-85
2021/08/17 00:49:00;;;;;;;8.93;5.30;;;;;;;;;;2085413;28;20076;-86
2021/08/17 00:50:23;;;;;;;12.15;6.30;;;;;;;;;;2089802;28;20029;-84
2021/08/17 00:51:42;;;;;;;17.35;7.15;;;;;;;;;;2091684;28;20020;-84
2021/08/17 00:53:01;;;;;;;9.15;5.68;;;;;;;;;;2089529;28;20389;-85
2021/08/17 00:54:20;;;;;;;12.02;5.82;;;;;;;;;;2090737;28;20021;-84
2021/08/17 00:55:39;;;;;;;13.90;6.57;;;;;;;;;;2090135;28;20651;-85
2021/08/17 00:56:59;;;;;;;17.13;5.93;;;;;;;;;;2090607;28;20037;-85
2021/08/17 00:58:19;;;;;;;16.60;6.80;;;;;;;;;;2090062;28;20033;-86
2021/08/17 00:59:38;;;;;;;10.02;7.03;;;;;;;;;;2091598;28;20532;-86
2021/08/17 01:00:57;;;;;;;14.55;6.95;;;;;;;;;;2090773;28;20041;-84
2021/08/17 01:02:16;;;;;;;18.75;7.32;;;;;;;;;;2091329;28;20029;-85
2021/08/17 01:03:36;;;;;;;15.90;7.30;;;;;;;;;;2088244;28;20025;-85
2021/08/17 01:04:56;;;;;;;13.00;7.25;;;;;;;;;;2091008;28;20398;-85
2021/08/17 01:06:15;;;;;;;11.82;7.43;;;;;;;;;;2090682;28;20384;-85
2021/08/17 01:07:34;;;;;;;10.05;5.78;;;;;;;;;;2089753;28;20373;-85
2021/08/17 01:08:53;;;;;;;10.45;6.22;;;;;;;;;;2088324;28;20025;-86
2021/08/17 01:10:12;;;;;;;12.57;6.72;;;;;;;;;;2091080;28;20029;-85
2021/08/17 01:11:31;;;;;;;13.77;6.72;;;;;;;;;;2093658;28;20052;-84
2021/08/17 01:12:50;;;;;;;11.52;6.72;;;;;;;;;;2085299;28;20033;-86
2021/08/17 01:14:09;;;;;;;12.15;6.97;;;;;;;;;;2090422;28;20036;-86
2021/08/17 01:15:28;;;;;;;17.55;7.72;;;;;;;;;;2091788;28;20515;-85
2021/08/17 01:16:48;;;;;;;17.02;7.00;;;;;;;;;;2093290;28;20024;-85
2021/08/17 01:18:07;;;;;;;13.30;7.28;;;;;;;;;;2090144;28;20025;-86
2021/08/17 01:19:26;;;;;;;20.58;7.15;;;;;;;;;;2093305;28;20033;-86
2021/08/17 01:20:48;;;;;;;15.57;6.95;;;;;;;;;;2087090;28;20034;-85
2021/08/17 01:22:07;;;;;;;21.38;8.38;;;;;;;;;;2093744;28;20036;-84
2021/08/17 01:23:27;;;;;;;16.25;7.85;;;;;;;;;;2099820;28;20487;-84
2021/08/17 01:24:46;;;;;;;16.27;8.48;;;;;;;;;;2089820;28;20056;-85
2021/08/17 01:26:06;;;;;;;20.08;8.60;;;;;;;;;;2088323;28;20107;-85
2021/08/17 01:27:25;;;;;;;23.77;8.98;;;;;;;;;;2087577;28;20026;-84
2021/08/17 01:28:44;;;;;;;15.20;7.90;;;;;;;;;;2090735;28;20029;-85
2021/08/17 01:30:03;;;;;;;17.45;9.82;;;;;;;;;;2088277;28;20033;-84
2021/08/17 01:31:24;;;;;;;19.30;8.75;;;;;;;;;;2088362;28;20017;-84
2021/08/17 01:32:44;;;;;;;21.63;8.85;;;;;;;;;;2086654;28;20025;-85
2021/08/17 01:34:03;;;;;;;17.38;9.70;;;;;;;;;;2089670;28;20025;-84
2021/08/17 01:35:22;;;;;;;18.10;9.10;;;;;;;;;;2094573;28;20414;-84
2021/08/17 01:36:41;;;;;;;16.55;9.27;;;;;;;;;;2087425;28;20033;-85
2021/08/17 01:38:02;;;;;;;19.20;9.32;;;;;;;;;;2086951;28;20064;-85
2021/08/17 01:39:21;;;;;;;28.70;9.63;;;;;;;;;;2086166;28;20407;-84
2021/08/17 01:40:40;;;;;;;17.27;9.63;;;;;;;;;;2090350;28;20497;-83
2021/08/17 01:41:59;;;;;;;12.55;8.45;;;;;;;;;;2087520;28;20057;-86
2021/08/17 01:43:18;;;;;;;17.35;8.38;;;;;;;;;;2085297;28;20049;-85
2021/08/17 01:44:37;;;;;;;19.42;8.90;;;;;;;;;;2089396;28;20030;-84
2021/08/17 01:45:57;;;;;;;15.15;7.65;;;;;;;;;;2094842;28;20024;-85
2021/08/17 01:47:16;;;;;;;19.15;9.02;;;;;;;;;;2092391;28;20024;-85
2021/08/17 01:48:35;;;;;;;16.83;9.00;;;;;;;;;;2091680;28;20467;-85
2021/08/17 01:49:54;;;;;;;13.52;8.77;;;;;;;;;;2086524;28;20037;-84
2021/08/17 01:51:12;;;;;;;15.20;8.90;;;;;;;;;;2095045;28;20420;-82
2021/08/17 01:52:31;;;;;;;19.13;8.63;;;;;;;;;;2087984;28;20472;-85
2021/08/17 01:53:50;;;;;;;13.25;8.40;;;;;;;;;;2091016;28;20791;-84
2021/08/17 01:55:09;;;;;;;15.90;8.68;;;;;;;;;;2091831;28;20100;-84
2021/08/17 01:56:28;;;;;;;14.90;8.35;;;;;;;;;;2090186;28;20029;-85
2021/08/17 01:57:47;;;;;;;19.95;9.32;;;;;;;;;;2090220;28;20100;-84
2021/08/17 01:59:06;;;;;;;18.83;8.32;;;;;;;;;;2088886;28;20013;-85
2021/08/17 02:00:25;;;;;;;11.30;7.80;;;;;;;;;;2086519;28;20108;-85
2021/08/17 02:01:43;;;;;;;14.15;7.90;;;;;;;;;;2092592;28;20504;-85
2021/08/17 02:03:02;;;;;;;19.05;8.50;;;;;;;;;;2086025;28;20029;-84
2021/08/17 02:04:21;;;;;;;17.35;8.27;;;;;;;;;;2093800;28;20029;-84
2021/08/17 02:05:40;;;;;;;13.85;7.32;;;;;;;;;;2086064;28;20025;-84
2021/08/17 02:06:59;;;;;;;18.55;7.85;;;;;;;;;;2089462;28;20407;-86
2021/08/17 02:08:18;;;;;;;10.55;7.10;;;;;;;;;;2082833;28;20057;-85
2021/08/17 02:09:37;;;;;;;12.73;7.45;;;;;;;;;;2088432;28;20037;-85
2021/08/17 02:10:56;;;;;;;13.23;8.13;;;;;;;;;;2088365;28;20488;-84
2021/08/17 02:12:15;;;;;;;18.40;8.35;;;;;;;;;;2085447;28;20053;-85
2021/08/17 02:13:34;;;;;;;15.05;8.00;;;;;;;;;;2092233;28;20028;-85
2021/08/17 02:14:52;;;;;;;13.80;7.55;;;;;;;;;;2090166;28;20100;-85
2021/08/17 02:16:11;;;;;;;17.23;7.15;;;;;;;;;;2089233;28;20037;-84
2021/08/17 02:17:30;;;;;;;18.67;8.10;;;;;;;;;;2087183;28;20088;-84
2021/08/17 02:18:49;;;;;;;17.02;8.02;;;;;;;;;;2085489;28;20033;-85
2021/08/17 02:20:08;;;;;;;12.80;7.35;;;;;;;;;;2083730;28;20037;-86
2021/08/17 02:21:27;;;;;;;11.65;7.68;;;;;;;;;;2083794;28;20060;-82
2021/08/17 02:22:46;;;;;;;16.08;8.15;;;;;;;;;;2086623;28;20037;-85
2021/08/17 02:24:05;;;;;;;16.15;7.93;;;;;;;;;;2087442;28;20488;-85
2021/08/17 02:25:23;;;;;;;13.05;7.75;;;;;;;;;;2087953;28;20021;-85
2021/08/17 02:26:42;;;;;;;12.27;7.53;;;;;;;;;;2090046;28;20037;-85
2021/08/17 02:28:01;;;;;;;17.73;7.65;;;;;;;;;;2088403;28;20056;-85
2021/08/17 02:29:20;;;;;;;18.35;8.27;;;;;;;;;;2084762;28;20127;-85
2021/08/17 02:30:39;;;;;;;16.77;7.97;;;;;;;;;;2093037;28;20028;-85
2021/08/17 02:31:58;;;;;;;16.85;8.45;;;;;;;;;;2087718;28;20028;-84
2021/08/17 02:33:17;;;;;;;16.35;7.82;;;;;;;;;;2090652;28;20041;-86
2021/08/17 02:34:36;;;;;;;12.80;7.97;;;;;;;;;;2088975;28;20033;-85
2021/08/17 02:35:55;;;;;;;12.20;8.35;;;;;;;;;;2090209;28;20033;-85
2021/08/17 02:37:13;;;;;;;16.05;7.93;;;;;;;;;;2087765;28;20037;-84
2021/08/17 02:38:34;;;;;;;13.32;6.93;;;;;;;;;;2088801;28;20060;-85
2021/08/17 02:39:53;;;;;;;17.00;8.40;;;;;;;;;;2089309;28;20033;-85
2021/08/17 02:41:11;;;;;;;13.00;7.50;;;;;;;;;;2094215;28;20024;-86
2021/08/17 02:42:32;;;;;;;11.20;7.32;;;;;;;;;;2089778;28;20036;-85
2021/08/17 02:43:51;;;;;;;16.55;6.95;;;;;;;;;;2091005;28;20104;-84
2021/08/17 02:45:10;;;;;;;13.38;8.02;;;;;;;;;;2085779;28;20029;-85
2021/08/17 02:46:29;;;;;;;12.00;7.00;;;;;;;;;;2084987;28;20029;-84
2021/08/17 02:47:47;;;;;;;17.42;8.15;;;;;;;;;;2085885;28;20463;-84
2021/08/17 02:49:06;;;;;;;14.20;8.45;;;;;;;;;;2084941;28;20041;-85
2021/08/17 02:50:26;;;;;;;11.90;7.85;;;;;;;;;;2094645;28;20442;-84
2021/08/17 02:51:45;;;;;;;12.55;8.32;;;;;;;;;;2090249;28;20033;-85
2021/08/17 02:53:04;;;;;;;19.02;9.13;;;;;;;;;;2090579;28;20025;-85
2021/08/17 02:54:23;;;;;;;11.18;7.82;;;;;;;;;;2098579;28;20028;-84
2021/08/17 02:55:42;;;;;;;10.27;7.13;;;;;;;;;;2090137;28;20091;-85
2021/08/17 02:57:01;;;;;;;9.30;6.03;;;;;;;;;;2084826;28;20033;-84
2021/08/17 02:58:20;;;;;;;16.80;8.05;;;;;;;;;;2090960;28;20056;-85
2021/08/17 02:59:39;;;;;;;12.98;7.30;;;;;;;;;;2081540;28;20033;-85
2021/08/17 03:00:58;;;;;;;12.40;8.02;;;;;;;;;;2081094;28;20029;-85
2021/08/17 03:02:17;;;;;;;11.10;7.90;;;;;;;;;;2093419;28;20024;-84
2021/08/17 03:03:35;;;;;;;13.95;6.63;;;;;;;;;;2092267;28;20037;-85
2021/08/17 03:04:54;;;;;;;14.13;8.23;;;;;;;;;;2087575;28;20033;-85
2021/08/17 03:06:13;;;;;;;11.57;7.45;;;;;;;;;;2091462;28;20029;-85
2021/08/17 03:07:32;;;;;;;13.02;8.00;;;;;;;;;;2090797;28;20018;-84
2021/08/17 03:08:51;;;;;;;12.20;7.40;;;;;;;;;;2087411;28;20025;-85
2021/08/17 03:10:09;;;;;;;14.27;8.02;;;;;;;;;;2089662;28;20025;-85
2021/08/17 03:11:28;;;;;;;15.02;7.85;;;;;;;;;;2091105;28;20430;-85
2021/08/17 03:12:47;;;;;;;10.80;7.88;;;;;;;;;;2090408;28;20124;-84
2021/08/17 03:14:07;;;;;;;14.98;7.53;;;;;;;;;;2089108;28;20070;-84
2021/08/17 03:15:26;;;;;;;13.13;7.35;;;;;;;;;;2085879;28;20037;-85
2021/08/17 03:16:45;;;;;;;15.35;7.28;;;;;;;;;;2083620;28;20033;-84
2021/08/17 03:18:08;;;;;;;12.43;7.72;;;;;;;;;;2087564;28;20028;-86
2021/08/17 03:19:27;;;;;;;10.95;8.10;;;;;;;;;;2086113;28;20041;-85
2021/08/17 03:20:46;;;;;;;16.35;8.40;;;;;;;;;;2084734;28;20033;-85
2021/08/17 03:22:06;;;;;;;16.23;7.97;;;;;;;;;;2085477;28;20108;-85
2021/08/17 03:23:27;;;;;;;11.00;7.57;;;;;;;;;;2088805;28;20127;-85
2021/08/17 03:24:46;;;;;;;12.75;6.85;;;;;;;;;;2081969;28;20500;-85
2021/08/17 03:26:06;;;;;;;16.15;7.70;;;;;;;;;;2084675;28;20052;-86
2021/08/17 03:27:25;;;;;;;12.05;8.00;;;;;;;;;;2094139;28;20024;-85
2021/08/17 03:28:44;;;;;;;13.05;8.18;;;;;;;;;;2089177;28;20107;-85
2021/08/17 03:30:06;;;;;;;14.77;8.00;;;;;;;;;;2089999;28;20021;-85
2021/08/17 03:31:25;;;;;;;10.00;6.93;;;;;;;;;;2085433;28;20021;-85
2021/08/17 03:32:44;;;;;;;9.48;8.23;;;;;;;;;;2085769;28;20025;-85
2021/08/17 03:34:03;;;;;;;11.52;7.32;;;;;;;;;;2088869;28;20040;-85
2021/08/17 03:35:22;;;;;;;14.63;8.20;;;;;;;;;;2090152;28;20769;-85
2021/08/17 03:36:41;;;;;;;10.15;7.13;;;;;;;;;;2089441;28;20032;-84
2021/08/17 03:37:59;;;;;;;12.38;7.97;;;;;;;;;;2086309;28;20033;-86
2021/08/17 03:39:18;;;;;;;6.65;5.88;;;;;;;;;;2089957;28;20029;-86
2021/08/17 03:40:37;;;;;;;17.20;8.45;;;;;;;;;;2086060;28;20068;-85
2021/08/17 03:41:57;;;;;;;9.88;6.57;;;;;;;;;;2085358;28;20033;-83
2021/08/17 03:43:15;;;;;;;13.85;7.80;;;;;;;;;;2086197;28;20029;-86
2021/08/17 03:44:34;;;;;;;10.43;7.07;;;;;;;;;;2090003;28;20017;-85
2021/08/17 03:45:54;;;;;;;10.10;7.45;;;;;;;;;;2089474;28;20025;-86
2021/08/17 03:47:12;;;;;;;12.45;7.90;;;;;;;;;;2089037;28;20041;-86
2021/08/17 03:48:32;;;;;;;12.60;6.40;;;;;;;;;;2089120;28;20025;-85
2021/08/17 03:49:51;;;;;;;10.57;7.35;;;;;;;;;;2083544;28;20037;-85
2021/08/17 03:51:10;;;;;;;13.75;7.38;;;;;;;;;;2090684;28;20021;-85
2021/08/17 03:52:29;;;;;;;13.52;7.65;;;;;;;;;;2089004;28;20028;-84
2021/08/17 03:53:48;;;;;;;12.75;8.10;;;;;;;;;;2092676;28;20037;-85
2021/08/17 03:55:07;;;;;;;12.15;7.28;;;;;;;;;;2082704;28;20485;-85
2021/08/17 03:56:26;;;;;;;15.45;7.43;;;;;;;;;;2090688;28;20420;-85
2021/08/17 03:57:45;;;;;;;8.50;6.93;;;;;;;;;;2088460;28;20421;-84
2021/08/17 03:59:04;;;;;;;9.80;7.15;;;;;;;;;;2088807;28;20056;-86
2021/08/17 04:00:28;;;;;;;12.38;7.38;;;;;;;;;;2090591;28;20021;-85
2021/08/17 04:01:49;;;;;;;8.52;7.00;;;;;;;;;;2088728;28;20025;-85
2021/08/17 04:03:09;;;;;;;8.10;6.13;;;;;;;;;;2083711;28;20052;-85
2021/08/17 04:04:28;;;;;;;11.52;7.25;;;;;;;;;;2089882;28;20025;-85
2021/08/17 04:05:49;;;;;;;11.10;7.18;;;;;;;;;;2089462;28;20552;-85
2021/08/17 04:07:08;;;;;;;8.02;7.00;;;;;;;;;;2081901;28;20041;-86
2021/08/17 04:08:27;;;;;;;10.18;6.60;;;;;;;;;;2090923;28;20052;-85
2021/08/17 04:09:46;;;;;;;5.35;4.85;;;;;;;;;;2086885;28;20021;-86
2021/08/17 04:11:05;;;;;;;11.60;6.47;;;;;;;;;;2086532;28;20029;-86
2021/08/17 04:12:24;;;;;;;12.07;6.80;;;;;;;;;;2087920;28;20021;-86
2021/08/17 04:13:42;;;;;;;9.95;6.75;;;;;;;;;;2088770;28;20099;-85
2021/08/17 04:15:02;;;;;;;18.48;6.85;;;;;;;;;;2088209;28;20029;-85
2021/08/17 04:16:21;;;;;;;10.15;5.82;;;;;;;;;;2084809;28;20465;-85
2021/08/17 04:17:49;;;;;;;7.70;6.78;;;;;;;;;;2091445;28;20029;-86
2021/08/17 04:19:08;;;;;;;12.13;6.60;;;;;;;;;;2086355;28;20028;-83
2021/08/17 04:20:29;;;;;;;8.55;6.90;;;;;;;;;;2090104;28;20033;-85
2021/08/17 04:21:53;;;;;;;8.63;6.63;;;;;;;;;;2083587;28;20029;-84
2021/08/17 04:23:11;;;;;;;5.70;5.20;;;;;;;;;;2093877;28;20029;-85
2021/08/17 04:24:33;;;;;;;8.00;6.00;;;;;;;;;;2088857;28;20021;-84
2021/08/17 04:25:52;;;;;;;8.90;6.18;;;;;;;;;;2087333;28;20100;-86
2021/08/17 04:27:12;;;;;;;5.88;5.35;;;;;;;;;;2085049;28;20025;-86
2021/08/17 04:28:32;;;;;;;8.98;6.10;;;;;;;;;;2089240;28;20029;-86
2021/08/17 04:29:51;;;;;;;10.75;6.45;;;;;;;;;;2089791;28;20025;-86
2021/08/17 04:31:11;;;;;;;7.72;6.78;;;;;;;;;;2088833;28;20404;-86
2021/08/17 04:32:30;;;;;;;10.07;6.47;;;;;;;;;;2091896;28;20016;-85
2021/08/17 04:33:52;;;;;;;12.63;6.70;;;;;;;;;;2087887;28;20028;-88
2021/08/17 04:35:11;;;;;;;7.18;6.28;;;;;;;;;;2089815;28;20028;-89
2021/08/17 04:36:30;;;;;;;8.48;5.78;;;;;;;;;;2090538;28;20029;-88
2021/08/17 04:37:50;;;;;;;16.08;6.30;;;;;;;;;;2089580;28;20033;-86
2021/08/17 04:39:09;;;;;;;11.27;6.75;;;;;;;;;;2086185;28;20032;-89
2021/08/17 04:40:30;;;;;;;8.70;6.03;;;;;;;;;;2088488;28;20025;-84
2021/08/17 04:41:49;;;;;;;7.90;7.10;;;;;;;;;;2090955;28;20021;-81
2021/08/17 04:43:08;;;;;;;7.93;6.63;;;;;;;;;;2090920;28;20029;-87
2021/08/17 04:44:27;;;;;;;10.25;6.85;;;;;;;;;;2084229;28;20029;-89
2021/08/17 04:45:52;;;;;;;12.00;6.30;;;;;;;;;;2092977;28;20029;-88
2021/08/17 04:47:11;;;;;;;6.03;5.47;;;;;;;;;;2090406;28;20025;-92
2021/08/17 04:48:32;;;;;;;10.73;6.15;;;;;;;;;;2089995;28;20100;-88
2021/08/17 04:49:51;;;;;;;7.60;4.90;;;;;;;;;;2092602;28;20056;-89
2021/08/17 04:51:10;;;;;;;9.43;5.82;;;;;;;;;;2089171;28;20040;-89
2021/08/17 04:52:31;;;;;;;7.57;4.78;;;;;;;;;;2091555;28;20032;-88
2021/08/17 04:53:53;;;;;;;7.00;5.53;;;;;;;;;;2087370;28;20029;-91
2021/08/17 04:55:12;;;;;;;9.38;4.75;;;;;;;;;;2090855;28;20018;-87
2021/08/17 04:56:31;;;;;;;6.82;4.70;;;;;;;;;;2088558;28;20025;-87
2021/08/17 04:57:50;;;;;;;5.90;4.75;;;;;;;;;;2087022;28;20488;-87
2021/08/17 04:59:09;;;;;;;8.07;4.55;;;;;;;;;;2086905;28;20073;-87
2021/08/17 05:00:29;;;;;;;7.10;3.83;;;;;;;;;;2083924;28;20064;-85
2021/08/17 05:01:49;;;;;;;5.90;4.05;;;;;;;;;;2091974;28;20020;-87
2021/08/17 05:03:08;;;;;;;5.65;3.88;;;;;;;;;;2087532;28;20064;-84
2021/08/17 05:04:26;;;;;;;5.47;4.00;;;;;;;;;;2086359;28;20021;-83
2021/08/17 05:05:46;;;;;;;6.47;4.47;;;;;;;;;;2088152;28;20021;-85
2021/08/17 05:07:07;;;;;;;8.32;4.70;;;;;;;;;;2090248;28;20532;-86
2021/08/17 05:08:26;;;;;;;5.00;4.60;;;;;;;;;;2090750;28;20025;-85
2021/08/17 05:09:45;;;;;;;8.73;4.60;;;;;;;;;;2091672;28;20032;-89
2021/08/17 05:11:04;;;;;;;8.68;5.03;;;;;;;;;;2089471;28;20411;-89
2021/08/17 05:12:23;;;;;;;5.55;4.45;;;;;;;;;;2091567;28;20037;-86
2021/08/17 05:13:42;;;;;;;6.60;3.85;;;;;;;;;;2090606;28;20037;-90
2021/08/17 05:15:03;;;;;;;6.20;3.70;;;;;;;;;;2090241;28;20025;-85
2021/08/17 05:16:22;;;;;;;5.63;3.50;;;;;;;;;;2091396;28;20466;-87
2021/08/17 05:17:41;;;;;;;4.47;3.95;;;;;;;;;;2091324;28;20033;-88
2021/08/17 05:19:00;;;;;;;6.57;4.32;;;;;;;;;;2090226;28;20225;-88
2021/08/17 05:20:18;;;;;;;6.05;3.78;;;;;;;;;;2089803;28;20021;-89
2021/08/17 05:21:37;;;;;;;5.20;4.20;;;;;;;;;;2090834;28;20073;-86
2021/08/17 05:22:56;;;;;;;6.70;4.22;;;;;;;;;;2090269;28;20504;-85
2021/08/17 05:24:15;;;;;;;6.22;4.28;;;;;;;;;;2087850;28;20396;-87
2021/08/17 05:25:34;;;;;;;4.35;3.95;;;;;;;;;;2089945;28;20029;-85
2021/08/17 05:26:53;;;;;;;5.07;4.20;;;;;;;;;;2090834;28;20021;-86
2021/08/17 05:28:12;;;;;;;5.93;4.43;;;;;;;;;;2090468;28;20025;-87
2021/08/17 05:29:30;;;;;;;7.15;4.00;;;;;;;;;;2088841;28;20026;-86
2021/08/17 05:30:49;;;;;;;9.68;4.20;;;;;;;;;;2088905;28;20478;-83
2021/08/17 05:32:08;;;;;;;7.03;3.95;;;;;;;;;;2085957;28;20468;-86
2021/08/17 05:33:27;;;;;;;5.20;3.70;;;;;;;;;;2088286;28;20025;-88
2021/08/17 05:34:46;;;;;;;4.57;4.05;;;;;;;;;;2090282;28;20056;-86
2021/08/17 05:36:05;;;;;;;4.80;4.05;;;;;;;;;;2089774;28;20176;-83
2021/08/17 05:37:24;;;;;;;5.60;4.22;;;;;;;;;;2086615;28;20021;-85
2021/08/17 05:38:43;;;;;;;6.22;3.97;;;;;;;;;;2092177;28;20032;-84
2021/08/17 05:40:03;;;;;;;7.72;4.35;;;;;;;;;;2083453;28;20033;-84
2021/08/17 05:41:21;;;;;;;4.50;4.13;;;;;;;;;;2089399;28;20029;-82
2021/08/17 05:42:40;;;;;;;4.60;4.00;;;;;;;;;;2087215;28;20037;-84
2021/08/17 05:43:59;;;;;;;6.55;3.90;;;;;;;;;;2087405;28;20492;-87
2021/08/17 05:45:18;;;;;;;13.05;4.10;;;;;;;;;;2086521;28;20540;-83
2021/08/17 05:46:37;;;;;;;6.57;3.88;;;;;;;;;;2087624;28;20033;-84
2021/08/17 05:47:56;;;;;;;5.40;3.65;;;;;;;;;;2085111;28;20026;-84
2021/08/17 05:49:14;;;;;;;7.00;3.30;;;;;;;;;;2090133;28;20041;-78
2021/08/17 05:50:33;;;;;;;5.10;4.07;;;;;;;;;;2092099;28;20021;-73
2021/08/17 05:51:52;;;;;;;4.22;3.60;;;;;;;;;;2089188;28;20033;-73
2021/08/17 05:53:11;;;;;;;3.70;2.97;;;;;;;;;;2085733;28;20029;-73
2021/08/17 05:54:30;;;;;;;4.07;3.78;;;;;;;;;;2088310;28;20029;-76
2021/08/17 05:55:48;;;;;;;7.38;3.70;;;;;;;;;;2088628;28;20037;-74
2021/08/17 05:57:09;;;;;;;5.82;3.80;;;;;;;;;;2087940;28;20029;-85
2021/08/17 05:58:28;;;;;;;8.55;3.67;;;;;;;;;;2095300;28;20058;-85
2021/08/17 05:59:47;;;;;;;5.63;3.40;;;;;;;;;;2094429;28;20040;-82
2021/08/17 06:01:05;;;;;;;6.93;3.92;;;;;;;;;;2090418;28;20025;-85
2021/08/17 06:02:24;;;;;;;4.82;3.22;;;;;;;;;;2089838;28;20443;-86
2021/08/17 06:03:43;;;;;;;7.63;4.00;;;;;;;;;;2088875;28;20037;-84
2021/08/17 06:05:02;;;;;;;6.03;3.72;;;;;;;;;;2086544;28;20025;-85
2021/08/17 06:06:21;;;;;;;7.82;3.60;;;;;;;;;;2085263;28;20036;-82
2021/08/17 06:07:44;;;;;;;3.97;3.22;;;;;;;;;;2081089;28;20128;-84
2021/08/17 06:09:03;;;;;;;6.50;3.72;;;;;;;;;;2087980;28;20446;-83
2021/08/17 06:10:22;;;;;;;9.32;3.88;;;;;;;;;;2086061;28;20017;-85
2021/08/17 06:11:41;;;;;;;10.55;4.15;;;;;;;;;;2084071;28;20038;-82
2021/08/17 06:13:00;;;;;;;8.27;3.20;;;;;;;;;;2090128;28;20020;-84
2021/08/17 06:14:19;;;;;;;5.00;3.20;;;;;;;;;;2091628;28;20037;-82
2021/08/17 06:15:38;;;;;;;5.93;2.78;;;;;;;;;;2091182;28;20026;-82
2021/08/17 06:16:57;;;;;;;6.93;2.72;;;;;;;;;;2090293;28;20104;-86
2021/08/17 06:18:16;;;;;;;6.15;2.83;;;;;;;;;;2088559;28;20491;-84
2021/08/17 06:19:35;;;;;;;6.85;2.55;;;;;;;;;;2089689;28;20377;-84
2021/08/17 06:20:54;;;;;;;2.92;2.65;;;;;;;;;;2087431;28;20033;-83
2021/08/17 06:22:13;;;;;;;6.63;2.83;;;;;;;;;;2096382;28;20024;-86
2021/08/17 06:23:32;;;;;;;9.23;2.88;;;;;;;;;;2088852;28;20500;-84
2021/08/17 06:24:50;;;;;;;7.18;3.03;;;;;;;;;;2088430;28;20093;-83
2021/08/17 06:26:09;;;;;;;11.00;3.00;;;;;;;;;;2089650;28;20017;-85
2021/08/17 06:27:28;;;;;;;13.75;2.65;;;;;;;;;;2089683;28;20361;-84
2021/08/17 06:28:47;;;;;;;14.63;3.00;;;;;;;;;;2085035;28;20413;-84
2021/08/17 06:30:06;;;;;;;3.55;2.20;;;;;;;;;;2087785;28;20461;-84
2021/08/17 06:31:25;;;;;;;4.03;2.03;;;;;;;;;;2089583;28;20029;-84
2021/08/17 06:32:44;;;;;;;5.63;2.63;;;;;;;;;;2090361;28;20057;-85
2021/08/17 06:34:03;;;;;;;5.28;2.53;;;;;;;;;;2088045;28;20400;-83
2021/08/17 06:35:22;;;;;;;6.20;2.30;;;;;;;;;;2086919;28;20029;-86
2021/08/17 06:36:42;;;;;;;6.75;2.15;;;;;;;;;;2087414;28;20104;-85
2021/08/17 06:38:01;;;;;;;2.90;2.58;;;;;;;;;;2086344;28;20025;-86
2021/08/17 06:39:20;;;;;;;3.45;2.45;;;;;;;;;;2088402;28;20037;-86
2021/08/17 06:40:39;;;;;;;2.42;2.17;;;;;;;;;;2086342;28;20020;-85
2021/08/17 06:41:58;;;;;;;1.73;1.63;;;;;;;;;;2088271;28;20057;-82
2021/08/17 06:43:17;;;;;;;6.32;2.47;;;;;;;;;;2090403;28;20033;-85
2021/08/17 06:44:36;;;;;;;4.32;2.35;;;;;;;;;;2087298;28;20037;-85
2021/08/17 06:45:55;;;;;;;5.40;2.63;;;;;;;;;;2085270;28;20096;-85
2021/08/17 06:47:14;;;;;;;5.55;2.17;;;;;;;;;;2090040;28;20536;-87
2021/08/17 06:48:33;;;;;;;4.00;2.22;;;;;;;;;;2089234;28;20029;-86
2021/08/17 06:49:52;;;;;;;4.50;1.65;;;;;;;;;;2077770;28;20057;-88
2021/08/17 06:51:11;;;;;;;3.47;1.77;;;;;;;;;;2072329;28;20030;-90
2021/08/17 06:52:30;;;;;;;5.28;1.85;;;;;;;;;;2079734;28;20025;-90
2021/08/17 06:53:49;;;;;;;3.30;1.60;;;;;;;;;;2080233;28;20065;-90
2021/08/17 06:55:08;;;;;;;2.20;1.98;;;;;;;;;;2077551;28;20026;-89
2021/08/17 06:56:27;;;;;;;5.47;1.90;;;;;;;;;;2072287;28;20197;-92
2021/08/17 06:57:45;;;;;;;3.38;1.83;;;;;;;;;;2074363;28;20022;-91
2021/08/17 06:59:04;;;;;;;2.10;1.67;;;;;;;;;;2076407;28;20021;-92
2021/08/17 07:00:23;;;;;;;5.00;1.80;;;;;;;;;;2073340;28;20505;-91
2021/08/17 07:01:42;;;;;;;5.32;1.55;;;;;;;;;;2077610;28;20034;-92
2021/08/17 07:03:01;;;;;;;5.10;1.95;;;;;;;;;;2071558;28;20477;-91
2021/08/17 07:04:20;;;;;;;2.92;1.88;;;;;;;;;;2075500;28;20029;-85
2021/08/17 07:05:41;;;;;;;2.15;1.65;;;;;;;;;;2075487;28;20033;-91
2021/08/17 07:07:00;;;;;;;3.50;1.42;;;;;;;;;;2077466;28;20494;-89
2021/08/17 07:08:41;;;;;;;4.30;1.55;;;;;;;;;;2074357;28;20049;-87
2021/08/17 07:10:00;;;;;;;1.75;1.50;;;;;;;;;;2077572;28;20022;-91
2021/08/17 07:11:21;;;;;;;1.63;1.52;;;;;;;;;;2070524;28;20501;-87
2021/08/17 07:12:45;;;;;;;3.28;1.67;;;;;;;;;;2069652;28;20046;-94
2021/08/17 07:14:04;;;;;;;3.10;1.90;;;;;;;;;;2068565;28;20441;-89
2021/08/17 07:15:22;;;;;;;4.70;1.90;;;;;;;;;;2071565;28;20299;-84
2021/08/17 07:16:41;;;;;;;2.35;1.77;;;;;;;;;;2070929;28;20018;-88
2021/08/17 07:18:00;;;;;;;3.05;1.63;;;;;;;;;;2078584;28;20022;-87
2021/08/17 07:19:19;;;;;;;2.13;1.50;;;;;;;;;;2075808;28;20042;-87
2021/08/17 07:20:39;;;;;;;3.40;1.42;;;;;;;;;;2074016;28;20672;-88
2021/08/17 07:21:58;;;;;;;2.10;1.23;;;;;;;;;;2076037;28;20030;-91
2021/08/17 07:23:17;;;;;;;2.17;1.63;;;;;;;;;;2072996;28;20165;-89
2021/08/17 07:24:37;;;;;;;1.85;1.75;;;;;;;;;;2072639;28;20014;-85
2021/08/17 07:25:55;;;;;;;4.60;1.80;;;;;;;;;;2070276;28;20021;-87
2021/08/17 07:27:14;;;;;;;3.75;1.50;;;;;;;;;;2073259;28;20018;-86
2021/08/17 07:28:33;;;;;;;3.58;1.20;;;;;;;;;;2072052;28;20030;-88
2021/08/17 07:29:53;;;;;;;3.08;1.30;;;;;;;;;;2072640;28;20722;-87
2021/08/17 07:31:12;;;;;;;2.05;1.70;;;;;;;;;;2075918;28;20037;-87
2021/08/17 07:32:32;;;;;;;3.25;1.58;;;;;;;;;;2085974;28;20112;-91
2021/08/17 07:33:51;;;;;;;7.18;1.95;;;;;;;;;;2074145;28;20022;-90
2021/08/17 07:35:11;;;;;;;3.17;1.70;;;;;;;;;;2074122;28;20132;-84
